Nuevotorreblanquilla — EADA — position and weather

sailwx.info

Track history (hours):
 
Tides and Currents Weather Stations Pressure Air Temp Water Temp Dewpoint Dewpoint Depression Visibility Wind Speed Wind Dir Waves Ship Positions

Nuevotorreblanquilla

Last reported at 2017-Sep-07 15:12 UTC. Time now 2017-Sep-22 20:52 UTC.
Position N 39°39' W 012°60'.
Warning: this ship's position is 15 days out of date.

Length 24 m; draft 3 m.

Type: Fishing. MMSI: 224066980.

Date/timePositionNaut miles runAvg speedWind from/ knotsBaromVisibWave heightAir tempDewpointWater temp
2017-Sep-07 15:12N 39°39' W 012°60'15 4.8
2017-Sep-07 11:58N 39°25' W 013°10'4 3.6
2017-Sep-07 10:53N 39°21' W 013°09'2 5.5
2017-Sep-07 10:30N 39°21' W 013°06'20 4.5
2017-Sep-07 06:00N 39°09' W 012°45'1 2.5
2017-Sep-07 05:31N 39°10' W 012°45'4 6.2
2017-Sep-07 04:56N 39°14' W 012°45'9 5.9
2017-Sep-07 03:19N 39°23' W 012°47'3 5.7
2017-Sep-07 02:45N 39°26' W 012°48'2 5.7
2017-Sep-07 02:25N 39°28' W 012°48'2 5.7
2017-Sep-07 02:00N 39°31' W 012°49'3 5.8
2017-Sep-07 01:30N 39°33' W 012°49'3 6.0
2017-Sep-07 01:00N 39°36' W 012°50'20 3.4
2017-Sep-06 18:59N 39°17' W 012°57'6 7.6
2017-Sep-06 18:11N 39°13' W 012°51'  
2017-Sep-03 12:21N 37°59' W 015°00'3 6.1
2017-Sep-03 11:54N 37°56' W 015°01'9 6.4
2017-Sep-03 10:32N 37°48' W 015°06'0 7.3
2017-Sep-03 10:30N 37°48' W 015°06'10 6.0
2017-Sep-03 08:48N 37°38' W 015°09'2 4.5
2017-Sep-03 08:20N 37°36' W 015°09'35 4.2
2017-Sep-02 23:59N 38°09' W 014°54'14 7.2
2017-Sep-02 22:00N 37°56' W 015°02'21 7.2
2017-Sep-02 19:03N 37°35' W 015°10'1 7.1
2017-Sep-02 18:56N 37°35' W 015°11'5 4.7
2017-Sep-02 17:48N 37°31' W 015°16'216 4.3
2017-Aug-31 15:57N 38°39' W 010°56'12 5.6
2017-Aug-31 13:46N 38°51' W 010°52'8 6.1
2017-Aug-31 12:30N 38°59' W 010°49'3 5.7
2017-Aug-31 11:53N 39°02' W 010°49'2 5.3
2017-Aug-31 11:29N 39°04' W 010°49'  
Track history (hours):
 
Tides and Currents Weather Stations Pressure Air Temp Water Temp Dewpoint Dewpoint Depression Visibility Wind Speed Wind Dir Waves Ship Positions

Nuevotorreblanquilla

Last reported at 2017-Sep-07 15:12 UTC. Time now 2017-Sep-22 20:52 UTC.
Position N 39°39' W 012°60'.
Warning: this ship's position is 15 days out of date.

Length 24 m; draft 3 m.

Type: Fishing. MMSI: 224066980.

Date/timePositionNaut miles runAvg speedWind from/ knotsBaromVisibWave heightAir tempDewpointWater temp
2017-Sep-07 15:12N 39°39' W 012°60'15 4.8
2017-Sep-07 11:58N 39°25' W 013°10'4 3.6
2017-Sep-07 10:53N 39°21' W 013°09'2 5.5
2017-Sep-07 10:30N 39°21' W 013°06'20 4.5
2017-Sep-07 06:00N 39°09' W 012°45'1 2.5
2017-Sep-07 05:31N 39°10' W 012°45'4 6.2
2017-Sep-07 04:56N 39°14' W 012°45'9 5.9
2017-Sep-07 03:19N 39°23' W 012°47'3 5.7
2017-Sep-07 02:45N 39°26' W 012°48'2 5.7
2017-Sep-07 02:25N 39°28' W 012°48'2 5.7
2017-Sep-07 02:00N 39°31' W 012°49'3 5.8
2017-Sep-07 01:30N 39°33' W 012°49'3 6.0
2017-Sep-07 01:00N 39°36' W 012°50'20 3.4
2017-Sep-06 18:59N 39°17' W 012°57'6 7.6
2017-Sep-06 18:11N 39°13' W 012°51'  
2017-Sep-03 12:21N 37°59' W 015°00'3 6.1
2017-Sep-03 11:54N 37°56' W 015°01'9 6.4
2017-Sep-03 10:32N 37°48' W 015°06'0 7.3
2017-Sep-03 10:30N 37°48' W 015°06'10 6.0
2017-Sep-03 08:48N 37°38' W 015°09'2 4.5
2017-Sep-03 08:20N 37°36' W 015°09'35 4.2
2017-Sep-02 23:59N 38°09' W 014°54'14 7.2
2017-Sep-02 22:00N 37°56' W 015°02'21 7.2
2017-Sep-02 19:03N 37°35' W 015°10'1 7.1
2017-Sep-02 18:56N 37°35' W 015°11'5 4.7
2017-Sep-02 17:48N 37°31' W 015°16'216 4.3
2017-Aug-31 15:57N 38°39' W 010°56'12 5.6
2017-Aug-31 13:46N 38°51' W 010°52'8 6.1
2017-Aug-31 12:30N 38°59' W 010°49'3 5.7
2017-Aug-31 11:53N 39°02' W 010°49'2 5.3
2017-Aug-31 11:29N 39°04' W 010°49'  

Dump ship's entire track history